Time;durP1;ratioP1;P1;durP2;ratioP2;P2;SDS_P1;SDS_P2;PMS_P1;PMS_P2;Temp;Humidity;BMP_temperature;BMP_pressure;BME280_temperature;BME280_humidity;BME280_pressure;Samples;Min_cycle;Max_cycle;Signal;HPM_P1;HPM_P2
2024/04/09 00:01:40;;;;;;;48.75;32.53;;;;;;;;;;13939812;21;20314;-86
2024/04/09 00:06:47;;;;;;;43.88;31.13;;;;;;;;;;13938913;21;20416;-85
2024/04/09 00:11:53;;;;;;;48.67;33.10;;;;;;;;;;13938308;21;20582;-85
2024/04/09 00:16:57;;;;;;;48.80;33.83;;;;;;;;;;13939653;21;20327;-83
2024/04/09 00:22:05;;;;;;;47.47;33.40;;;;;;;;;;13939622;21;20415;-85
2024/04/09 00:27:09;;;;;;;49.30;34.00;;;;;;;;;;13939988;21;20318;-85
2024/04/09 00:32:13;;;;;;;49.17;33.50;;;;;;;;;;13940731;21;20323;-83
2024/04/09 00:37:20;;;;;;;53.58;35.28;;;;;;;;;;13940009;21;20310;-86
2024/04/09 00:42:24;;;;;;;53.75;35.35;;;;;;;;;;13939057;21;20318;-85
2024/04/09 00:47:28;;;;;;;53.10;35.00;;;;;;;;;;13938736;21;20323;-85
2024/04/09 00:52:41;;;;;;;52.17;35.33;;;;;;;;;;13939122;21;20418;-84
2024/04/09 00:57:48;;;;;;;52.75;35.60;;;;;;;;;;13938788;21;20867;-85
2024/04/09 01:02:53;;;;;;;51.05;33.92;;;;;;;;;;13939553;21;20318;-85
2024/04/09 01:08:00;;;;;;;54.80;35.42;;;;;;;;;;13939857;21;20899;-85
2024/04/09 01:13:04;;;;;;;57.22;36.15;;;;;;;;;;13937232;21;20418;-85
2024/04/09 01:18:09;;;;;;;57.83;35.60;;;;;;;;;;13931130;21;20362;-85
2024/04/09 01:23:15;;;;;;;54.93;35.07;;;;;;;;;;13926498;21;20366;-84
2024/04/09 01:28:20;;;;;;;52.42;33.80;;;;;;;;;;13932718;21;20342;-85
2024/04/09 01:33:24;;;;;;;52.60;34.08;;;;;;;;;;13933438;21;20767;-85
2024/04/09 01:38:31;;;;;;;54.22;34.15;;;;;;;;;;13933979;21;20318;-85
2024/04/09 01:43:35;;;;;;;52.37;34.43;;;;;;;;;;13936911;21;20396;-85
2024/04/09 01:48:40;;;;;;;50.85;33.63;;;;;;;;;;13934942;21;20354;-85
2024/04/09 01:53:48;;;;;;;48.45;31.23;;;;;;;;;;13935364;21;20322;-85
2024/04/09 01:58:52;;;;;;;49.83;32.22;;;;;;;;;;13936754;21;20322;-85
2024/04/09 02:03:57;;;;;;;49.53;32.87;;;;;;;;;;13937527;21;20647;-85
2024/04/09 02:09:04;;;;;;;46.42;31.50;;;;;;;;;;13938344;21;20323;-85
2024/04/09 02:14:10;;;;;;;47.23;30.93;;;;;;;;;;13936228;21;20314;-85
2024/04/09 02:19:14;;;;;;;47.80;31.07;;;;;;;;;;13938516;21;20376;-85
2024/04/09 02:24:22;;;;;;;44.93;30.60;;;;;;;;;;13938139;21;20693;-85
2024/04/09 02:29:26;;;;;;;42.28;28.77;;;;;;;;;;13936244;21;20326;-85
2024/04/09 02:34:35;;;;;;;45.55;29.67;;;;;;;;;;13938394;21;20311;-85
2024/04/09 02:39:43;;;;;;;45.50;28.00;;;;;;;;;;13937027;21;20325;-85
2024/04/09 02:44:47;;;;;;;40.33;27.33;;;;;;;;;;13937376;21;20866;-84
2024/04/09 02:49:52;;;;;;;37.92;26.85;;;;;;;;;;13941994;21;20424;-85
2024/04/09 02:54:59;;;;;;;39.57;27.40;;;;;;;;;;13940576;21;20588;-85
2024/04/09 03:00:09;;;;;;;41.25;26.83;;;;;;;;;;13940096;21;21233;-85
2024/04/09 03:05:13;;;;;;;41.95;27.33;;;;;;;;;;13942007;21;20315;-85
2024/04/09 03:10:20;;;;;;;40.83;26.55;;;;;;;;;;13942407;21;20430;-83
2024/04/09 03:15:24;;;;;;;40.20;26.85;;;;;;;;;;13941051;21;20326;-85
2024/04/09 03:20:28;;;;;;;39.35;27.17;;;;;;;;;;13941850;21;20318;-85
2024/04/09 03:25:35;;;;;;;40.17;27.70;;;;;;;;;;13940029;21;20314;-85
2024/04/09 03:30:42;;;;;;;41.28;27.38;;;;;;;;;;13939805;21;20314;-85
2024/04/09 03:35:52;;;;;;;42.92;28.17;;;;;;;;;;13941056;21;20808;-85
2024/04/09 03:41:00;;;;;;;42.60;28.38;;;;;;;;;;13941799;21;20330;-85
2024/04/09 03:46:07;;;;;;;40.53;26.17;;;;;;;;;;13939568;21;20318;-84
2024/04/09 03:51:11;;;;;;;36.13;25.15;;;;;;;;;;13940552;21;20349;-85
2024/04/09 03:56:18;;;;;;;36.88;25.38;;;;;;;;;;13940494;21;20741;-84
2024/04/09 04:01:23;;;;;;;38.33;25.65;;;;;;;;;;13939704;21;20310;-85
2024/04/09 04:06:27;;;;;;;39.35;26.50;;;;;;;;;;13940331;21;20388;-84
2024/04/09 04:11:34;;;;;;;38.05;26.42;;;;;;;;;;13939289;21;20407;-84
2024/04/09 04:16:44;;;;;;;38.60;26.73;;;;;;;;;;13939178;21;20775;-85
2024/04/09 04:21:48;;;;;;;46.13;28.92;;;;;;;;;;13940410;21;20311;-85
2024/04/09 04:26:54;;;;;;;43.70;26.85;;;;;;;;;;13940451;21;20898;-84
2024/04/09 04:31:59;;;;;;;39.78;26.98;;;;;;;;;;13936343;21;20424;-84
2024/04/09 04:37:03;;;;;;;40.58;26.52;;;;;;;;;;13936903;21;20310;-84
2024/04/09 04:42:10;;;;;;;40.15;26.08;;;;;;;;;;13938470;21;20322;-85
2024/04/09 04:47:14;;;;;;;40.75;25.80;;;;;;;;;;13936665;21;20330;-84
2024/04/09 04:52:18;;;;;;;39.40;25.70;;;;;;;;;;13938971;21;20319;-84
2024/04/09 04:57:25;;;;;;;41.50;26.50;;;;;;;;;;13937536;21;20549;-84
2024/04/09 05:02:32;;;;;;;43.10;26.27;;;;;;;;;;13937326;21;20342;-84
2024/04/09 05:07:36;;;;;;;42.90;26.20;;;;;;;;;;13938266;21;20424;-84
2024/04/09 05:12:44;;;;;;;41.13;26.50;;;;;;;;;;13936718;21;20338;-85
2024/04/09 05:17:49;;;;;;;42.50;26.57;;;;;;;;;;13934868;21;20322;-84
2024/04/09 05:22:56;;;;;;;39.57;25.63;;;;;;;;;;13934334;21;20322;-85
2024/04/09 05:28:03;;;;;;;43.30;25.05;;;;;;;;;;13934812;21;20413;-84
2024/04/09 05:33:07;;;;;;;39.13;25.70;;;;;;;;;;13934421;21;20326;-84
2024/04/09 05:38:11;;;;;;;42.08;24.45;;;;;;;;;;13935725;21;20310;-85
2024/04/09 05:43:18;;;;;;;34.83;22.97;;;;;;;;;;13934771;21;21118;-85
2024/04/09 05:48:22;;;;;;;38.47;23.88;;;;;;;;;;13933465;21;20366;-85
2024/04/09 05:53:26;;;;;;;43.65;22.20;;;;;;;;;;13932533;21;20345;-85
2024/04/09 05:58:33;;;;;;;32.80;21.52;;;;;;;;;;13927997;21;20424;-85
2024/04/09 06:03:37;;;;;;;32.95;21.95;;;;;;;;;;13930810;21;20408;-85
2024/04/09 06:08:41;;;;;;;33.33;20.87;;;;;;;;;;13931398;21;20342;-86
2024/04/09 06:13:48;;;;;;;32.25;21.17;;;;;;;;;;13934012;21;20331;-84
2024/04/09 06:18:52;;;;;;;29.83;19.80;;;;;;;;;;13935258;21;20503;-85
2024/04/09 06:23:56;;;;;;;31.20;19.17;;;;;;;;;;13940067;21;21284;-85
2024/04/09 06:29:04;;;;;;;26.70;18.45;;;;;;;;;;13940702;21;20325;-84
2024/04/09 06:34:08;;;;;;;30.00;17.38;;;;;;;;;;13941317;21;20914;-86
2024/04/09 06:39:13;;;;;;;26.10;17.07;;;;;;;;;;13940694;21;20476;-86
2024/04/09 06:44:20;;;;;;;25.50;16.00;;;;;;;;;;13938807;21;20881;-86
2024/04/09 06:49:25;;;;;;;25.13;16.35;;;;;;;;;;13938112;21;20325;-85
2024/04/09 06:54:28;;;;;;;23.85;15.65;;;;;;;;;;13941574;21;20322;-85
2024/04/09 06:59:35;;;;;;;25.92;16.38;;;;;;;;;;13941914;21;20337;-86
2024/04/09 07:04:40;;;;;;;24.15;16.40;;;;;;;;;;13940454;21;20412;-85
2024/04/09 07:09:44;;;;;;;22.42;15.00;;;;;;;;;;13941402;21;20366;-85
2024/04/09 07:14:50;;;;;;;20.13;13.32;;;;;;;;;;13937293;21;20326;-85
2024/04/09 07:19:57;;;;;;;19.63;12.10;;;;;;;;;;13938913;21;20431;-85
2024/04/09 07:25:01;;;;;;;19.92;12.48;;;;;;;;;;13938984;21;20902;-84
2024/04/09 07:30:09;;;;;;;15.63;10.55;;;;;;;;;;13937831;21;20943;-84
2024/04/09 07:35:14;;;;;;;19.33;11.52;;;;;;;;;;13930079;21;20354;-84
2024/04/09 07:40:18;;;;;;;17.93;10.93;;;;;;;;;;13938703;21;20330;-85
2024/04/09 07:45:25;;;;;;;15.88;11.27;;;;;;;;;;13937489;21;20322;-85
2024/04/09 07:50:29;;;;;;;16.43;11.03;;;;;;;;;;13933943;21;20759;-85
2024/04/09 07:55:33;;;;;;;17.10;9.80;;;;;;;;;;13930125;21;20408;-85
2024/04/09 08:00:41;;;;;;;19.27;10.63;;;;;;;;;;13934607;21;20355;-85
2024/04/09 08:05:45;;;;;;;14.05;10.52;;;;;;;;;;13938626;21;20314;-85
2024/04/09 08:10:49;;;;;;;16.53;11.07;;;;;;;;;;13938351;21;20831;-85
2024/04/09 08:15:57;;;;;;;16.02;10.70;;;;;;;;;;13938986;21;20404;-85
2024/04/09 08:21:02;;;;;;;17.30;11.40;;;;;;;;;;13936574;21;20322;-85
2024/04/09 08:26:08;;;;;;;17.50;11.23;;;;;;;;;;13937796;21;20409;-85
2024/04/09 08:31:17;;;;;;;13.97;10.33;;;;;;;;;;13935763;21;20411;-86
2024/04/09 08:36:22;;;;;;;17.05;11.07;;;;;;;;;;13933886;21;20338;-85
2024/04/09 08:41:28;;;;;;;16.58;11.23;;;;;;;;;;13939743;21;20410;-85
2024/04/09 08:46:38;;;;;;;13.07;10.27;;;;;;;;;;13939211;21;20376;-84
2024/04/09 08:51:43;;;;;;;17.45;11.45;;;;;;;;;;13936953;21;20396;-85
2024/04/09 08:56:49;;;;;;;18.92;11.95;;;;;;;;;;13937924;21;20318;-85
2024/04/09 09:01:56;;;;;;;18.35;12.27;;;;;;;;;;13930485;21;20346;-84
2024/04/09 09:07:00;;;;;;;17.13;11.33;;;;;;;;;;13935045;21;20303;-84
2024/04/09 09:12:07;;;;;;;17.80;10.60;;;;;;;;;;13936526;21;20461;-84
2024/04/09 09:17:13;;;;;;;14.40;9.77;;;;;;;;;;13938592;21;20314;-84
2024/04/09 09:22:17;;;;;;;16.60;10.75;;;;;;;;;;13937358;21;20311;-84
2024/04/09 09:27:23;;;;;;;17.17;10.10;;;;;;;;;;13931781;21;20349;-84
2024/04/09 09:32:30;;;;;;;19.30;10.38;;;;;;;;;;13788965;21;20346;-85
2024/04/09 09:37:37;;;;;;;18.70;11.77;;;;;;;;;;13601200;21;20445;-84
2024/04/09 09:42:42;;;;;;;16.20;11.53;;;;;;;;;;13601824;21;20318;-84
2024/04/09 09:47:49;;;;;;;20.15;11.88;;;;;;;;;;13600517;21;20330;-84
2024/04/09 09:52:55;;;;;;;20.03;12.43;;;;;;;;;;13599896;21;20338;-84
2024/04/09 09:58:03;;;;;;;19.30;11.73;;;;;;;;;;13600688;21;20322;-84
2024/04/09 10:03:10;;;;;;;14.38;10.93;;;;;;;;;;13602369;21;20327;-85
2024/04/09 10:08:20;;;;;;;17.77;11.68;;;;;;;;;;13601973;21;20326;-84
2024/04/09 10:13:27;;;;;;;16.92;11.40;;;;;;;;;;13601638;21;20681;-84
2024/04/09 10:18:37;;;;;;;15.40;11.07;;;;;;;;;;13599988;21;20389;-85
2024/04/09 10:23:42;;;;;;;15.05;10.70;;;;;;;;;;13600108;21;20438;-84
2024/04/09 10:28:46;;;;;;;14.33;10.13;;;;;;;;;;13603425;21;20761;-84
2024/04/09 10:34:00;;;;;;;13.60;9.52;;;;;;;;;;13602735;21;20326;-84
2024/04/09 10:39:07;;;;;;;16.85;9.85;;;;;;;;;;13602075;21;20427;-85
2024/04/09 10:44:12;;;;;;;13.52;9.50;;;;;;;;;;13602644;21;20678;-84
2024/04/09 10:49:20;;;;;;;16.00;9.87;;;;;;;;;;13602163;21;20559;-85
2024/04/09 10:54:25;;;;;;;12.13;9.43;;;;;;;;;;13602497;21;20330;-85
2024/04/09 10:59:29;;;;;;;14.33;10.10;;;;;;;;;;13600949;21;20326;-85
2024/04/09 11:04:36;;;;;;;13.00;9.30;;;;;;;;;;13599736;21;20425;-84
2024/04/09 11:09:40;;;;;;;13.52;8.23;;;;;;;;;;13601476;21;20329;-85
2024/04/09 11:14:44;;;;;;;14.82;9.18;;;;;;;;;;13604840;21;20326;-84
2024/04/09 11:19:53;;;;;;;10.52;7.30;;;;;;;;;;13604397;21;20316;-85
2024/04/09 11:24:58;;;;;;;9.32;7.68;;;;;;;;;;13604328;21;20334;-85
2024/04/09 11:30:02;;;;;;;9.73;6.90;;;;;;;;;;13604651;21;20334;-84
2024/04/09 11:35:18;;;;;;;12.15;7.10;;;;;;;;;;13602793;21;20361;-85
2024/04/09 11:40:23;;;;;;;10.15;7.00;;;;;;;;;;13604387;21;20362;-85
2024/04/09 11:45:29;;;;;;;9.05;6.82;;;;;;;;;;13602883;21;20769;-84
2024/04/09 11:50:36;;;;;;;10.13;6.83;;;;;;;;;;13605367;21;20402;-85
2024/04/09 11:55:40;;;;;;;11.27;6.47;;;;;;;;;;13602548;21;20362;-84
2024/04/09 12:00:44;;;;;;;7.90;5.67;;;;;;;;;;13604029;21;20416;-85
2024/04/09 12:05:51;;;;;;;9.37;6.53;;;;;;;;;;13603276;21;20432;-86
2024/04/09 12:10:56;;;;;;;9.03;6.57;;;;;;;;;;13599610;21;20711;-85
2024/04/09 12:16:00;;;;;;;9.05;6.22;;;;;;;;;;13597475;21;20350;-85
2024/04/09 12:21:08;;;;;;;8.10;6.43;;;;;;;;;;13597372;21;20318;-84
2024/04/09 12:26:12;;;;;;;11.50;6.75;;;;;;;;;;13598567;21;20734;-85
2024/04/09 12:31:17;;;;;;;10.23;7.03;;;;;;;;;;13597054;21;20453;-85
2024/04/09 12:36:27;;;;;;;9.50;6.60;;;;;;;;;;13593589;21;20507;-84
2024/04/09 12:41:32;;;;;;;8.20;5.90;;;;;;;;;;13597754;21;20486;-85
2024/04/09 12:46:36;;;;;;;6.82;4.82;;;;;;;;;;13595632;21;20381;-85
2024/04/09 12:51:43;;;;;;;7.20;5.40;;;;;;;;;;13596023;21;20490;-85
2024/04/09 12:56:47;;;;;;;5.72;4.55;;;;;;;;;;13595159;21;20446;-85
2024/04/09 13:01:51;;;;;;;4.95;4.05;;;;;;;;;;13595637;21;20377;-85
2024/04/09 13:06:58;;;;;;;4.77;3.60;;;;;;;;;;13593017;21;20974;-85
2024/04/09 13:12:02;;;;;;;5.88;4.03;;;;;;;;;;13597883;21;20354;-85
2024/04/09 13:17:07;;;;;;;5.70;3.55;;;;;;;;;;13598750;21;20361;-86
2024/04/09 13:22:14;;;;;;;5.13;3.87;;;;;;;;;;13598129;21;20358;-86
2024/04/09 13:27:18;;;;;;;6.57;4.18;;;;;;;;;;13596119;21;20326;-86
2024/04/09 13:32:22;;;;;;;7.50;4.13;;;;;;;;;;13598248;21;20512;-85
2024/04/09 13:37:29;;;;;;;4.80;3.90;;;;;;;;;;13596802;21;20378;-86
2024/04/09 13:42:41;;;;;;;7.63;4.10;;;;;;;;;;13596497;21;20429;-85
2024/04/09 13:47:48;;;;;;;7.07;4.00;;;;;;;;;;13596827;21;20772;-86
2024/04/09 13:52:54;;;;;;;6.25;4.00;;;;;;;;;;13597574;21;20705;-87
2024/04/09 13:57:59;;;;;;;6.27;3.70;;;;;;;;;;13592644;21;20699;-86
2024/04/09 14:03:03;;;;;;;5.93;4.07;;;;;;;;;;13588461;21;20915;-85
2024/04/09 14:08:10;;;;;;;4.37;3.80;;;;;;;;;;13591580;21;20445;-84
2024/04/09 14:13:14;;;;;;;4.15;3.55;;;;;;;;;;13589029;21;20929;-84
2024/04/09 14:18:18;;;;;;;7.50;5.20;;;;;;;;;;13591374;21;20807;-85
2024/04/09 14:23:25;;;;;;;7.10;4.05;;;;;;;;;;13592138;21;20374;-85
2024/04/09 14:28:29;;;;;;;7.53;4.43;;;;;;;;;;13596122;21;20374;-86
2024/04/09 14:33:34;;;;;;;6.23;3.90;;;;;;;;;;13593105;21;20918;-86
2024/04/09 14:38:41;;;;;;;6.97;3.67;;;;;;;;;;13595112;21;20743;-84
2024/04/09 14:43:45;;;;;;;5.83;4.03;;;;;;;;;;13598554;21;20436;-85
2024/04/09 14:48:49;;;;;;;4.93;3.80;;;;;;;;;;13601841;21;20370;-85
2024/04/09 14:53:56;;;;;;;6.20;4.10;;;;;;;;;;13601282;21;20358;-85
2024/04/09 14:59:00;;;;;;;5.95;3.30;;;;;;;;;;13598684;21;21084;-85
2024/04/09 15:04:04;;;;;;;7.25;3.30;;;;;;;;;;13600990;21;20445;-86
2024/04/09 15:09:11;;;;;;;6.95;3.50;;;;;;;;;;13600274;21;20379;-85
2024/04/09 15:14:15;;;;;;;6.17;3.50;;;;;;;;;;13597576;21;20366;-85
2024/04/09 15:19:19;;;;;;;8.00;4.43;;;;;;;;;;13585295;21;20408;-87
2024/04/09 15:24:26;;;;;;;12.60;4.90;;;;;;;;;;13586178;21;20638;-86
2024/04/09 15:29:30;;;;;;;7.70;4.37;;;;;;;;;;13587425;21;20386;-87
2024/04/09 15:41:44;;;;;;;6.03;4.35;;;;;;;;;;13800793;21;20329;-87
2024/04/09 15:46:51;;;;;;;7.27;4.97;;;;;;;;;;13691362;21;20389;-85
2024/04/09 15:51:55;;;;;;;6.65;4.60;;;;;;;;;;13678895;21;20407;-84
2024/04/09 15:56:59;;;;;;;6.38;4.57;;;;;;;;;;13674310;21;20339;-82
2024/04/09 16:02:06;;;;;;;7.25;4.57;;;;;;;;;;13671716;21;20414;-84
2024/04/09 16:07:10;;;;;;;9.85;4.80;;;;;;;;;;13674029;21;20414;-85
2024/04/09 16:12:15;;;;;;;7.55;4.90;;;;;;;;;;13674293;21;20335;-84
2024/04/09 16:17:22;;;;;;;8.47;4.83;;;;;;;;;;13676158;21;20945;-84
2024/04/09 16:22:26;;;;;;;7.65;5.47;;;;;;;;;;13667257;21;20332;-84
2024/04/09 16:27:38;;;;;;;6.88;5.05;;;;;;;;;;13669157;21;20343;-84
2024/04/09 16:32:45;;;;;;;8.57;4.78;;;;;;;;;;13670977;21;20663;-84
2024/04/09 16:37:49;;;;;;;8.50;5.50;;;;;;;;;;13674404;21;20950;-85
2024/04/09 16:42:53;;;;;;;9.40;5.47;;;;;;;;;;13680163;21;20654;-84
2024/04/09 16:48:00;;;;;;;6.20;5.45;;;;;;;;;;13689333;21;20669;-84
2024/04/09 16:53:04;;;;;;;7.50;5.40;;;;;;;;;;13692109;21;20872;-86
2024/04/09 16:58:08;;;;;;;7.72;5.82;;;;;;;;;;13686111;21;20720;-87
2024/04/09 17:03:15;;;;;;;9.55;5.75;;;;;;;;;;13666121;21;20416;-85
2024/04/09 17:08:19;;;;;;;8.00;6.15;;;;;;;;;;13676233;21;21136;-86
2024/04/09 17:13:23;;;;;;;9.83;6.33;;;;;;;;;;13662692;21;20411;-86
2024/04/09 17:18:30;;;;;;;9.77;6.10;;;;;;;;;;13668091;21;20406;-85
2024/04/09 17:23:34;;;;;;;9.07;6.40;;;;;;;;;;13662365;21;20449;-83
2024/04/09 17:28:39;;;;;;;8.37;6.50;;;;;;;;;;13670124;21;20343;-85
2024/04/09 17:33:46;;;;;;;10.50;6.70;;;;;;;;;;13686849;21;20340;-86
2024/04/09 17:38:50;;;;;;;9.57;6.88;;;;;;;;;;13663037;21;20753;-85
2024/04/09 17:43:55;;;;;;;10.73;7.10;;;;;;;;;;13673562;21;20433;-87
2024/04/09 17:49:04;;;;;;;10.83;7.00;;;;;;;;;;13673740;21;20327;-86
2024/04/09 17:54:09;;;;;;;11.20;8.15;;;;;;;;;;13679204;21;20415;-86
2024/04/09 17:59:14;;;;;;;11.27;7.68;;;;;;;;;;13695758;21;20382;-85
2024/04/09 18:04:22;;;;;;;10.80;7.50;;;;;;;;;;13683924;21;20726;-86
2024/04/09 18:09:26;;;;;;;10.98;7.53;;;;;;;;;;13678769;21;20323;-85
2024/04/09 18:14:30;;;;;;;11.07;7.30;;;;;;;;;;13690430;21;20393;-90
2024/04/09 18:19:37;;;;;;;15.98;8.98;;;;;;;;;;13701760;21;20355;-89
2024/04/09 18:24:41;;;;;;;14.35;8.90;;;;;;;;;;13696936;21;20356;-90
2024/04/09 18:29:45;;;;;;;16.50;10.02;;;;;;;;;;13703290;21;20763;-88
2024/04/09 18:34:52;;;;;;;16.13;9.30;;;;;;;;;;13702804;21;20884;-89
2024/04/09 18:39:57;;;;;;;14.77;9.40;;;;;;;;;;13707860;21;20408;-89
2024/04/09 18:45:03;;;;;;;12.50;9.20;;;;;;;;;;13688617;21;20397;-89
2024/04/09 18:50:10;;;;;;;15.27;9.20;;;;;;;;;;13697309;21;20428;-90
2024/04/09 18:55:15;;;;;;;12.63;9.40;;;;;;;;;;13705461;21;20821;-89
2024/04/09 19:00:19;;;;;;;14.03;9.40;;;;;;;;;;13703292;21;20427;-89
2024/04/09 19:05:26;;;;;;;14.25;9.88;;;;;;;;;;13704448;21;20435;-89
2024/04/09 19:10:30;;;;;;;13.65;9.23;;;;;;;;;;13706666;21;20336;-90
2024/04/09 19:15:34;;;;;;;17.00;11.27;;;;;;;;;;13703426;21;20367;-89
2024/04/09 19:20:41;;;;;;;19.00;12.02;;;;;;;;;;13703812;21;20442;-90
2024/04/09 19:25:45;;;;;;;19.33;11.90;;;;;;;;;;13699887;21;20825;-92
2024/04/09 19:30:49;;;;;;;16.73;11.52;;;;;;;;;;13698479;21;20352;-92
2024/04/09 19:35:56;;;;;;;15.80;11.30;;;;;;;;;;13699387;21;20383;-92
2024/04/09 19:41:00;;;;;;;18.50;12.07;;;;;;;;;;13699933;21;20375;-90
2024/04/09 19:46:06;;;;;;;15.73;11.10;;;;;;;;;;13705226;21;20406;-90
2024/04/09 19:51:12;;;;;;;18.90;12.73;;;;;;;;;;13688134;21;20478;-90
2024/04/09 19:56:17;;;;;;;15.82;11.50;;;;;;;;;;13690478;21;20480;-91
2024/04/09 20:01:21;;;;;;;18.10;12.48;;;;;;;;;;13697343;21;20387;-91
2024/04/09 20:06:28;;;;;;;17.10;12.67;;;;;;;;;;13701735;21;20392;-91
2024/04/09 20:11:32;;;;;;;16.77;11.73;;;;;;;;;;13698316;21;20383;-90
2024/04/09 20:16:36;;;;;;;17.42;10.60;;;;;;;;;;13697565;21;20368;-91
2024/04/09 20:21:43;;;;;;;20.40;12.50;;;;;;;;;;13707031;21;20423;-91
2024/04/09 20:26:51;;;;;;;19.43;13.00;;;;;;;;;;13703384;21;20417;-91
2024/04/09 20:31:55;;;;;;;19.23;12.57;;;;;;;;;;13702185;21;20339;-91
2024/04/09 20:37:02;;;;;;;18.42;12.85;;;;;;;;;;13702379;21;20328;-90
2024/04/09 20:42:06;;;;;;;18.40;12.38;;;;;;;;;;13696163;21;20367;-91
2024/04/09 20:47:11;;;;;;;19.20;13.43;;;;;;;;;;13699569;21;20949;-90
2024/04/09 20:52:17;;;;;;;18.77;12.48;;;;;;;;;;13700077;21;21237;-90
2024/04/09 20:57:22;;;;;;;20.77;14.00;;;;;;;;;;13697762;21;20455;-91
2024/04/09 21:02:27;;;;;;;19.65;13.48;;;;;;;;;;13695797;21;20388;-91
2024/04/09 21:07:34;;;;;;;21.80;12.70;;;;;;;;;;13694286;21;20368;-91
2024/04/09 21:12:38;;;;;;;19.02;12.50;;;;;;;;;;13705982;21;20449;-92
2024/04/09 21:17:42;;;;;;;21.10;13.03;;;;;;;;;;13682933;21;20435;-91
2024/04/09 21:22:49;;;;;;;18.48;12.52;;;;;;;;;;13699033;21;20339;-90
2024/04/09 21:27:53;;;;;;;19.52;13.10;;;;;;;;;;13700467;21;20339;-91
2024/04/09 21:33:01;;;;;;;19.52;12.48;;;;;;;;;;13693541;21;20921;-91
2024/04/09 21:38:08;;;;;;;19.02;12.63;;;;;;;;;;13700877;21;20374;-90
2024/04/09 21:43:12;;;;;;;22.98;12.95;;;;;;;;;;13689319;21;20364;-91
2024/04/09 21:48:16;;;;;;;28.33;12.93;;;;;;;;;;13708036;21;20411;-90
2024/04/09 21:53:23;;;;;;;22.50;12.52;;;;;;;;;;13703535;21;20340;-90
2024/04/09 21:58:27;;;;;;;23.60;11.00;;;;;;;;;;13707273;21;20422;-90
2024/04/09 22:03:31;;;;;;;22.50;11.48;;;;;;;;;;13720128;21;20323;-90
2024/04/09 22:08:38;;;;;;;19.45;12.60;;;;;;;;;;13721122;21;20331;-90
2024/04/09 22:13:42;;;;;;;20.15;12.70;;;;;;;;;;13718798;21;20339;-91
2024/04/09 22:18:47;;;;;;;23.67;13.65;;;;;;;;;;13714871;21;20404;-90
2024/04/09 22:23:53;;;;;;;22.08;13.15;;;;;;;;;;13703380;21;20327;-90
2024/04/09 22:28:58;;;;;;;22.00;13.25;;;;;;;;;;13697490;21;20371;-91
2024/04/09 22:34:02;;;;;;;20.95;13.68;;;;;;;;;;13699939;21;20898;-89
2024/04/09 22:39:09;;;;;;;21.00;13.63;;;;;;;;;;13712497;21;20913;-90
2024/04/09 22:44:13;;;;;;;18.73;13.05;;;;;;;;;;13709073;21;20320;-90
2024/04/09 22:49:18;;;;;;;20.48;13.70;;;;;;;;;;13705856;21;20319;-91
2024/04/09 22:54:25;;;;;;;20.35;13.55;;;;;;;;;;13716038;21;20323;-90
2024/04/09 22:59:29;;;;;;;24.80;15.43;;;;;;;;;;13706752;21;20490;-90
2024/04/09 23:04:34;;;;;;;23.13;15.45;;;;;;;;;;13715705;21;20331;-90
2024/04/09 23:09:43;;;;;;;22.90;14.60;;;;;;;;;;13722082;21;20810;-90
2024/04/09 23:14:49;;;;;;;21.93;14.53;;;;;;;;;;13717681;21;20788;-90
2024/04/09 23:19:53;;;;;;;25.88;16.42;;;;;;;;;;13717339;21;20319;-90
2024/04/09 23:25:00;;;;;;;27.67;17.20;;;;;;;;;;13717949;21;20328;-90
2024/04/09 23:30:05;;;;;;;27.63;17.45;;;;;;;;;;13713685;21;20980;-89
2024/04/09 23:35:09;;;;;;;24.40;16.33;;;;;;;;;;13724490;21;20738;-89
2024/04/09 23:40:16;;;;;;;18.27;13.43;;;;;;;;;;13704616;21;20327;-90
2024/04/09 23:45:21;;;;;;;19.77;13.30;;;;;;;;;;13700020;21;20383;-90
2024/04/09 23:50:25;;;;;;;20.23;12.90;;;;;;;;;;13706908;21;20450;-90
2024/04/09 23:55:32;;;;;;;16.85;12.05;;;;;;;;;;13714962;21;20315;-89
